Time;durP1;ratioP1;P1;durP2;ratioP2;P2;SDS_P1;SDS_P2;PMS_P1;PMS_P2;Temp;Humidity;BMP_temperature;BMP_pressure;BME280_temperature;BME280_humidity;BME280_pressure;Samples;Min_cycle;Max_cycle;Signal;HPM_P1;HPM_P2
2021/03/07 00:02:30;;;;;;;9.85;5.00;;;3.20;48.30;;;;;;5032619;28;20060;-76
2021/03/07 00:04:56;;;;;;;12.48;5.20;;;3.50;48.30;;;;;;5036623;28;20080;-74
2021/03/07 00:07:23;;;;;;;11.18;6.13;;;3.40;48.40;;;;;;5036301;28;20049;-75
2021/03/07 00:09:49;;;;;;;10.50;5.15;;;3.40;48.30;;;;;;5035419;28;20164;-76
2021/03/07 00:12:15;;;;;;;11.63;4.95;;;3.40;48.20;;;;;;5030663;28;20099;-78
2021/03/07 00:14:41;;;;;;;8.52;4.60;;;3.50;47.80;;;;;;5035022;28;21249;-78
2021/03/07 00:17:08;;;;;;;12.82;4.78;;;3.70;47.50;;;;;;5035408;28;20140;-76
2021/03/07 00:19:35;;;;;;;10.35;4.57;;;4.10;47.60;;;;;;5018456;28;20057;-73
2021/03/07 00:22:01;;;;;;;9.50;4.60;;;3.90;46.90;;;;;;5030313;28;20067;-76
2021/03/07 00:24:28;;;;;;;9.40;5.38;;;4.10;47.30;;;;;;5034872;28;20056;-78
2021/03/07 00:26:54;;;;;;;10.73;4.80;;;3.90;47.80;;;;;;5035038;28;20086;-73
2021/03/07 00:29:20;;;;;;;10.57;5.05;;;3.70;48.60;;;;;;5036733;28;20154;-73
2021/03/07 00:31:47;;;;;;;10.05;5.35;;;3.80;48.10;;;;;;5038785;28;20095;-76
2021/03/07 00:34:13;;;;;;;8.60;5.32;;;4.10;48.30;;;;;;5035693;28;20498;-75
2021/03/07 00:36:40;;;;;;;10.30;5.13;;;3.70;48.20;;;;;;5018113;28;20127;-75
2021/03/07 00:39:07;;;;;;;11.38;5.30;;;3.60;48.70;;;;;;5033026;28;20171;-76
2021/03/07 00:41:40;;;;;;;10.98;4.97;;;3.70;48.40;;;;;;5026181;28;20136;-76
2021/03/07 00:44:08;;;;;;;11.23;5.50;;;3.60;49.10;;;;;;5014892;28;20069;-76
2021/03/07 00:46:38;;;;;;;10.95;5.40;;;3.60;49.60;;;;;;5023488;28;20425;-76
2021/03/07 00:49:05;;;;;;;10.10;5.60;;;3.60;49.40;;;;;;5024120;28;20081;-76
2021/03/07 00:51:31;;;;;;;10.90;5.22;;;3.90;48.80;;;;;;5031842;28;20138;-76
2021/03/07 00:53:58;;;;;;;10.00;4.75;;;3.80;48.40;;;;;;5020591;28;20850;-76
2021/03/07 00:56:24;;;;;;;10.27;5.30;;;3.90;48.40;;;;;;5021173;28;20482;-77
2021/03/07 00:58:51;;;;;;;8.90;4.32;;;3.70;48.40;;;;;;5023854;28;20111;-76
2021/03/07 01:01:17;;;;;;;8.43;4.53;;;3.80;48.30;;;;;;5014990;28;20095;-76
2021/03/07 01:03:45;;;;;;;10.02;4.45;;;3.50;49.60;;;;;;5021027;28;20054;-76
2021/03/07 01:06:11;;;;;;;10.15;5.07;;;3.40;49.60;;;;;;5021366;28;20130;-76
2021/03/07 01:08:38;;;;;;;9.65;4.45;;;3.70;49.70;;;;;;5015847;28;20049;-77
2021/03/07 01:11:04;;;;;;;10.05;4.47;;;3.80;49.20;;;;;;5027303;28;20088;-76
2021/03/07 01:13:32;;;;;;;13.38;5.00;;;3.70;49.60;;;;;;5020493;28;20054;-78
2021/03/07 01:15:59;;;;;;;12.63;4.88;;;3.70;50.30;;;;;;5035581;28;20069;-77
2021/03/07 01:18:26;;;;;;;10.30;4.47;;;3.60;50.90;;;;;;5024060;28;20160;-78
2021/03/07 01:20:52;;;;;;;11.13;5.45;;;3.70;50.40;;;;;;5024778;28;20091;-76
2021/03/07 01:23:21;;;;;;;8.82;4.65;;;3.50;50.00;;;;;;5018097;28;20087;-77
2021/03/07 01:25:48;;;;;;;8.82;5.22;;;3.10;50.40;;;;;;5023805;28;20485;-76
2021/03/07 01:28:14;;;;;;;9.65;4.88;;;3.20;51.00;;;;;;5022036;28;20049;-77
2021/03/07 01:30:43;;;;;;;10.40;5.20;;;3.30;51.30;;;;;;5021445;28;20054;-76
2021/03/07 01:33:09;;;;;;;8.45;4.75;;;3.10;51.60;;;;;;5023644;28;20081;-77
2021/03/07 01:35:37;;;;;;;13.00;5.13;;;3.10;51.90;;;;;;5021736;28;20165;-77
2021/03/07 01:38:04;;;;;;;11.23;5.57;;;3.20;51.80;;;;;;5026882;28;20041;-76
2021/03/07 01:40:35;;;;;;;12.75;5.95;;;3.00;52.20;;;;;;5022107;28;20088;-76
2021/03/07 01:43:03;;;;;;;10.07;5.57;;;3.00;52.60;;;;;;5026818;28;20057;-77
2021/03/07 01:45:31;;;;;;;11.70;5.85;;;3.00;53.00;;;;;;5025701;28;20552;-77
2021/03/07 01:48:00;;;;;;;8.23;4.93;;;2.90;53.10;;;;;;5017779;28;20049;-77
2021/03/07 01:50:29;;;;;;;12.85;5.43;;;3.10;53.60;;;;;;5023562;28;20063;-76
2021/03/07 01:52:56;;;;;;;8.90;5.55;;;3.00;53.30;;;;;;5027713;28;20061;-77
2021/03/07 01:55:28;;;;;;;12.73;5.43;;;2.80;53.20;;;;;;5025472;28;20050;-76
2021/03/07 01:58:07;;;;;;;10.55;5.55;;;2.70;53.30;;;;;;5021685;28;20084;-77
2021/03/07 02:00:34;;;;;;;11.30;5.90;;;2.90;53.50;;;;;;5021111;28;20057;-75
2021/03/07 02:03:01;;;;;;;11.48;5.70;;;2.90;53.10;;;;;;5017577;28;20077;-77
2021/03/07 02:05:29;;;;;;;10.43;5.43;;;2.70;52.80;;;;;;5019825;28;20054;-77
2021/03/07 02:07:56;;;;;;;13.18;5.53;;;2.60;53.20;;;;;;5020396;28;20057;-76
2021/03/07 02:10:32;;;;;;;13.45;5.63;;;2.50;53.10;;;;;;5024665;28;20053;-75
2021/03/07 02:13:03;;;;;;;10.82;5.60;;;2.40;53.20;;;;;;5026973;28;20448;-75
2021/03/07 02:15:32;;;;;;;11.35;5.45;;;2.90;52.80;;;;;;5049748;28;20042;-76
2021/03/07 02:18:00;;;;;;;10.48;5.95;;;2.70;52.40;;;;;;5031951;28;20081;-76
2021/03/07 02:20:29;;;;;;;14.32;5.70;;;2.50;52.60;;;;;;5027254;28;20421;-76
2021/03/07 02:23:06;;;;;;;11.52;5.35;;;3.00;52.60;;;;;;5021007;28;20045;-76
2021/03/07 02:25:33;;;;;;;12.23;5.63;;;2.80;52.80;;;;;;5028942;28;20111;-77
2021/03/07 02:28:00;;;;;;;9.73;5.25;;;2.70;53.10;;;;;;5026375;28;20468;-77
2021/03/07 02:30:28;;;;;;;13.30;5.85;;;2.60;53.50;;;;;;5018934;28;20379;-77
2021/03/07 02:33:19;;;;;;;13.63;6.63;;;2.40;53.20;;;;;;5057280;28;20050;-77
2021/03/07 02:35:51;;;;;;;12.27;5.88;;;2.70;53.70;;;;;;5026137;28;20385;-77
2021/03/07 02:38:22;;;;;;;8.50;5.18;;;2.50;53.40;;;;;;5024020;28;20045;-76
2021/03/07 02:40:54;;;;;;;;;;;2.70;52.80;;;;;;5022466;28;20121;-76
2021/03/07 02:43:22;;;;;;;11.63;5.20;;;2.60;52.40;;;;;;5020924;28;19921;-76
2021/03/07 02:45:50;;;;;;;12.20;5.47;;;2.30;52.00;;;;;;5022412;28;20061;-75
2021/03/07 02:48:22;;;;;;;10.60;4.88;;;2.20;51.90;;;;;;5021075;28;20129;-76
2021/03/07 02:50:50;;;;;;;10.00;5.07;;;2.40;52.40;;;;;;5058746;28;20077;-76
2021/03/07 02:53:23;;;;;;;10.93;5.10;;;2.30;52.10;;;;;;5016682;28;20045;-76
2021/03/07 02:56:01;;;;;;;13.80;5.07;;;2.20;52.10;;;;;;5054751;28;20050;-77
2021/03/07 02:58:31;;;;;;;10.82;5.63;;;2.30;52.40;;;;;;5055922;28;20480;-76
2021/03/07 03:01:04;;;;;;;10.80;4.88;;;2.20;52.70;;;;;;5021669;28;20081;-77
2021/03/07 03:03:34;;;;;;;10.45;5.00;;;2.20;52.60;;;;;;5027598;28;20092;-77
2021/03/07 03:06:02;;;;;;;11.07;4.72;;;2.20;52.40;;;;;;5021991;28;20147;-77
2021/03/07 03:08:31;;;;;;;8.35;4.60;;;2.50;51.90;;;;;;5020089;28;20397;-76
2021/03/07 03:10:59;;;;;;;9.67;4.70;;;2.60;51.90;;;;;;5022373;28;20081;-76
2021/03/07 03:13:33;;;;;;;8.65;4.43;;;2.50;51.90;;;;;;5020752;28;20374;-76
2021/03/07 03:16:02;;;;;;;10.38;5.53;;;2.50;51.70;;;;;;5026242;28;20489;-77
2021/03/07 03:18:33;;;;;;;8.95;4.60;;;2.40;52.10;;;;;;5027917;28;20049;-76
2021/03/07 03:21:04;;;;;;;7.90;4.38;;;2.40;52.50;;;;;;5027304;28;20099;-76
2021/03/07 03:23:30;;;;;;;;;;;2.40;53.00;;;;;;5028170;28;20049;-76
2021/03/07 03:25:57;;;;;;;10.10;4.80;;;2.50;52.90;;;;;;5021438;28;20400;-76
2021/03/07 03:28:26;;;;;;;8.25;5.00;;;2.50;53.20;;;;;;5018884;28;20072;-76
2021/03/07 03:30:54;;;;;;;10.25;5.07;;;2.50;53.60;;;;;;5028268;28;20712;-76
2021/03/07 03:33:25;;;;;;;8.57;4.95;;;2.60;53.10;;;;;;5025380;28;20131;-76
2021/03/07 03:35:53;;;;;;;9.27;5.22;;;2.50;53.10;;;;;;5054124;28;20041;-75
2021/03/07 03:38:24;;;;;;;12.38;5.90;;;2.40;54.20;;;;;;5019918;28;20496;-76
2021/03/07 03:40:55;;;;;;;12.43;5.43;;;2.10;54.10;;;;;;5023237;28;20435;-76
2021/03/07 03:43:23;;;;;;;16.60;5.10;;;2.20;54.40;;;;;;5020525;28;20108;-76
2021/03/07 03:45:58;;;;;;;12.13;5.75;;;2.10;55.60;;;;;;5025512;28;21530;-75
2021/03/07 03:48:31;;;;;;;11.48;5.18;;;2.00;55.60;;;;;;5049665;28;20092;-76
2021/03/07 03:51:00;;;;;;;9.32;4.93;;;2.00;55.60;;;;;;5018581;28;20632;-76
2021/03/07 03:53:28;;;;;;;10.90;5.63;;;2.70;55.10;;;;;;5026924;28;20077;-77
2021/03/07 03:55:57;;;;;;;14.18;5.50;;;2.40;55.00;;;;;;5025997;28;20485;-77
2021/03/07 03:58:27;;;;;;;10.25;5.60;;;2.20;54.80;;;;;;5020740;28;20069;-76
2021/03/07 04:00:55;;;;;;;10.97;5.77;;;1.90;54.60;;;;;;5020846;28;20452;-76
2021/03/07 04:03:24;;;;;;;9.93;5.72;;;2.00;55.20;;;;;;5054389;28;20296;-76
2021/03/07 04:05:52;;;;;;;9.20;5.30;;;1.80;55.60;;;;;;5029732;28;20041;-77
2021/03/07 04:08:21;;;;;;;10.57;5.45;;;2.20;55.80;;;;;;5025856;28;21447;-78
2021/03/07 04:10:50;;;;;;;11.25;6.55;;;2.00;56.10;;;;;;5026910;28;20512;-78
2021/03/07 04:13:23;;;;;;;9.07;5.63;;;1.60;56.50;;;;;;5054976;28;20050;-76
2021/03/07 04:15:49;;;;;;;10.63;5.72;;;1.60;56.60;;;;;;5030718;28;20440;-76
2021/03/07 04:18:20;;;;;;;11.30;5.88;;;1.60;56.80;;;;;;5023204;28;20041;-77
2021/03/07 04:20:47;;;;;;;11.65;5.82;;;1.80;57.30;;;;;;5024929;28;20041;-76
2021/03/07 04:23:14;;;;;;;13.27;6.18;;;1.60;57.10;;;;;;5025859;28;20355;-76
2021/03/07 04:25:41;;;;;;;11.25;6.03;;;1.60;57.20;;;;;;5061124;28;20041;-76
2021/03/07 04:28:08;;;;;;;13.00;5.93;;;1.60;57.30;;;;;;5023976;28;20454;-76
2021/03/07 04:30:36;;;;;;;12.13;6.22;;;1.70;57.40;;;;;;5017541;28;20132;-77
2021/03/07 04:33:04;;;;;;;14.52;6.72;;;1.30;58.10;;;;;;5057029;28;20049;-77
2021/03/07 04:35:32;;;;;;;12.27;6.60;;;1.20;58.30;;;;;;5028362;28;20400;-77
2021/03/07 04:38:01;;;;;;;13.63;6.15;;;1.50;57.60;;;;;;5026425;28;20045;-76
2021/03/07 04:40:28;;;;;;;11.95;6.30;;;1.30;57.60;;;;;;5024797;28;20069;-78
2021/03/07 04:42:55;;;;;;;13.43;6.18;;;1.30;57.70;;;;;;5021741;28;20482;-76
2021/03/07 04:45:22;;;;;;;12.90;6.57;;;0.90;57.60;;;;;;5014631;28;20050;-76
2021/03/07 04:47:48;;;;;;;11.13;6.13;;;1.10;57.80;;;;;;5026033;28;20049;-77
2021/03/07 04:50:15;;;;;;;10.73;6.03;;;1.30;57.60;;;;;;5024213;28;20049;-76
2021/03/07 04:52:42;;;;;;;10.15;5.43;;;1.30;57.20;;;;;;5021757;28;20046;-77
2021/03/07 04:55:10;;;;;;;13.07;5.80;;;1.50;57.70;;;;;;5022601;28;20041;-77
2021/03/07 04:57:37;;;;;;;11.18;6.15;;;1.10;57.50;;;;;;5022103;28;20084;-77
2021/03/07 05:00:10;;;;;;;12.60;5.60;;;1.50;58.00;;;;;;5019432;28;20108;-77
2021/03/07 05:02:37;;;;;;;13.13;5.65;;;1.50;57.80;;;;;;5027178;28;20088;-78
2021/03/07 05:05:05;;;;;;;15.35;6.28;;;1.50;58.30;;;;;;5025144;28;20127;-77
2021/03/07 05:07:32;;;;;;;11.48;5.80;;;1.20;57.40;;;;;;5025366;28;20069;-77
2021/03/07 05:09:59;;;;;;;13.60;6.10;;;1.00;57.90;;;;;;5023506;28;20042;-76
2021/03/07 05:12:26;;;;;;;11.88;5.82;;;1.00;58.60;;;;;;5020825;28;20544;-77
2021/03/07 05:15:05;;;;;;;12.40;5.93;;;0.80;58.70;;;;;;5025186;28;20453;-76
2021/03/07 05:17:31;;;;;;;12.23;6.03;;;1.10;58.90;;;;;;5025924;28;20045;-76
2021/03/07 05:19:59;;;;;;;13.55;6.93;;;1.20;57.80;;;;;;5022367;28;20136;-75
2021/03/07 05:22:26;;;;;;;10.38;6.13;;;1.00;58.00;;;;;;5027001;28;20045;-76
2021/03/07 05:24:54;;;;;;;12.70;6.00;;;0.80;58.70;;;;;;5046505;28;20049;-76
2021/03/07 05:27:21;;;;;;;11.20;6.15;;;0.70;59.20;;;;;;5022405;28;20053;-76
2021/03/07 05:29:47;;;;;;;13.95;6.10;;;0.80;58.90;;;;;;5022231;28;20053;-76
2021/03/07 05:32:13;;;;;;;18.63;6.10;;;1.20;58.70;;;;;;5015582;28;20398;-77
2021/03/07 05:34:40;;;;;;;12.90;6.75;;;1.10;58.70;;;;;;5019896;28;20126;-77
2021/03/07 05:37:07;;;;;;;12.05;6.13;;;0.60;58.80;;;;;;5021694;28;20049;-77
2021/03/07 05:39:33;;;;;;;15.05;6.70;;;0.60;59.20;;;;;;5020289;28;20053;-76
2021/03/07 05:42:00;;;;;;;11.65;6.35;;;0.80;59.70;;;;;;5029518;28;20069;-77
2021/03/07 05:44:27;;;;;;;13.50;6.43;;;0.80;59.60;;;;;;5029986;28;21233;-77
2021/03/07 05:46:54;;;;;;;10.40;6.00;;;0.60;59.40;;;;;;5025952;28;20049;-76
2021/03/07 05:49:20;;;;;;;13.30;6.13;;;0.80;59.50;;;;;;5023482;28;20077;-77
2021/03/07 05:51:47;;;;;;;14.00;6.25;;;0.60;59.60;;;;;;5029212;28;20413;-76
2021/03/07 05:54:16;;;;;;;13.77;5.47;;;0.60;60.20;;;;;;5026853;28;20058;-77
2021/03/07 05:56:47;;;;;;;10.80;5.88;;;1.00;59.80;;;;;;5021279;28;20052;-76
2021/03/07 05:59:14;;;;;;;13.05;6.03;;;0.90;59.50;;;;;;5030042;28;20195;-76
2021/03/07 06:01:41;;;;;;;14.20;6.20;;;1.00;59.60;;;;;;5022258;28;20382;-77
2021/03/07 06:04:08;;;;;;;13.63;5.82;;;1.00;59.60;;;;;;5060616;28;20049;-78
2021/03/07 06:06:34;;;;;;;10.65;5.40;;;0.70;59.60;;;;;;5023496;28;20058;-78
2021/03/07 06:09:21;;;;;;;18.13;6.45;;;0.70;59.70;;;;;;5027979;28;20111;-76
2021/03/07 06:11:49;;;;;;;12.63;5.72;;;0.80;60.30;;;;;;5028716;28;20495;-77
2021/03/07 06:14:19;;;;;;;10.27;5.78;;;1.20;59.70;;;;;;5027202;28;20437;-77
2021/03/07 06:17:08;;;;;;;9.35;5.50;;;1.00;59.50;;;;;;5028885;28;20073;-77
2021/03/07 06:19:56;;;;;;;13.75;6.00;;;1.70;58.90;;;;;;5027196;28;20133;-76
2021/03/07 06:22:23;;;;;;;10.15;5.20;;;2.10;57.30;;;;;;5029567;28;20071;-77
2021/03/07 06:24:49;;;;;;;12.13;6.10;;;1.60;56.80;;;;;;5028757;28;20112;-78
2021/03/07 06:27:17;;;;;;;14.07;5.95;;;1.10;58.40;;;;;;5024494;28;20089;-77
2021/03/07 06:30:16;;;;;;;9.48;5.60;;;1.10;58.90;;;;;;5056499;28;20049;-77
2021/03/07 06:32:52;;;;;;;12.20;6.30;;;1.10;58.80;;;;;;5029063;28;20429;-77
2021/03/07 06:35:21;;;;;;;10.80;5.72;;;0.90;59.00;;;;;;5020312;28;20057;-77
2021/03/07 06:38:01;;;;;;;13.63;5.70;;;1.00;59.20;;;;;;5019554;28;20087;-77
2021/03/07 06:40:39;;;;;;;14.95;6.32;;;1.10;59.00;;;;;;5026267;28;20379;-77
2021/03/07 06:43:22;;;;;;;14.13;6.18;;;0.90;59.00;;;;;;5018402;28;20085;-78
2021/03/07 06:46:07;;;;;;;11.93;5.78;;;1.00;59.40;;;;;;5024455;28;20078;-76
2021/03/07 06:48:34;;;;;;;12.50;5.65;;;1.30;59.80;;;;;;5023071;28;20054;-76
2021/03/07 06:51:01;;;;;;;13.23;6.00;;;1.20;59.40;;;;;;5020623;28;20132;-77
2021/03/07 06:53:39;;;;;;;12.13;5.85;;;1.00;59.10;;;;;;5022908;28;20093;-77
2021/03/07 06:56:08;;;;;;;13.65;5.55;;;1.40;58.90;;;;;;5060162;28;20131;-76
2021/03/07 06:58:35;;;;;;;12.32;5.88;;;1.30;59.00;;;;;;5029514;28;20092;-77
2021/03/07 07:01:01;;;;;;;10.88;6.28;;;1.40;58.70;;;;;;5025724;28;20061;-77
2021/03/07 07:03:31;;;;;;;11.18;6.20;;;1.30;58.80;;;;;;5024700;28;20062;-78
2021/03/07 07:05:58;;;;;;;10.20;6.25;;;1.50;59.10;;;;;;5023872;28;20149;-77
2021/03/07 07:08:45;;;;;;;12.27;6.00;;;1.10;59.00;;;;;;5022737;28;20096;-77
2021/03/07 07:11:12;;;;;;;12.90;6.10;;;1.20;59.50;;;;;;5025855;28;20146;-76
2021/03/07 07:13:51;;;;;;;15.23;6.68;;;1.10;59.40;;;;;;5030010;28;20128;-77
2021/03/07 07:16:35;;;;;;;9.90;5.55;;;1.30;59.70;;;;;;5027124;28;20048;-78
2021/03/07 07:19:02;;;;;;;;;;;1.60;61.00;;;;;;5021352;28;20129;-77
2021/03/07 07:21:29;;;;;;;12.73;6.30;;;1.50;61.40;;;;;;5025420;28;19922;-78
2021/03/07 07:23:55;;;;;;;14.90;6.20;;;1.60;60.60;;;;;;5032763;28;20053;-77
2021/03/07 07:26:25;;;;;;;12.82;6.18;;;1.50;60.10;;;;;;5027597;28;20432;-78
2021/03/07 07:28:54;;;;;;;11.57;5.63;;;1.90;60.70;;;;;;5030342;28;20049;-78
2021/03/07 07:31:34;;;;;;;12.90;6.25;;;1.70;61.30;;;;;;5013804;28;20132;-77
2021/03/07 07:34:16;;;;;;;9.70;5.30;;;2.00;60.70;;;;;;5022203;28;20405;-77
2021/03/07 07:36:48;;;;;;;13.38;5.80;;;2.10;60.60;;;;;;5017881;28;20057;-76
2021/03/07 07:39:23;;;;;;;10.68;5.70;;;1.90;59.80;;;;;;5026353;28;20085;-76
2021/03/07 07:41:49;;;;;;;9.23;5.55;;;2.10;60.20;;;;;;5021443;28;20484;-76
2021/03/07 07:44:27;;;;;;;14.95;6.10;;;2.10;59.60;;;;;;5021069;28;20107;-78
2021/03/07 07:47:04;;;;;;;11.52;5.97;;;2.00;59.40;;;;;;5056448;28;20045;-77
2021/03/07 07:49:49;;;;;;;12.70;6.35;;;2.10;59.30;;;;;;5020605;28;20075;-78
2021/03/07 07:52:25;;;;;;;12.07;5.70;;;2.10;58.80;;;;;;5042994;28;20049;-79
2021/03/07 07:54:58;;;;;;;11.90;5.85;;;2.00;57.40;;;;;;5038524;28;20049;-77
2021/03/07 07:57:37;;;;;;;10.90;5.85;;;2.30;57.70;;;;;;5023428;28;20053;-77
2021/03/07 08:00:18;;;;;;;9.23;4.97;;;4.50;56.00;;;;;;5020777;28;20053;-77
2021/03/07 08:02:57;;;;;;;12.38;5.57;;;5.80;52.80;;;;;;5026489;28;20116;-77
2021/03/07 08:05:26;;;;;;;11.55;6.15;;;6.40;50.10;;;;;;5026910;28;20068;-77
2021/03/07 08:08:05;;;;;;;9.50;5.10;;;5.50;50.70;;;;;;5019965;28;20045;-76
2021/03/07 08:10:49;;;;;;;9.75;5.35;;;5.60;51.50;;;;;;5021676;28;20061;-76
2021/03/07 08:13:39;;;;;;;10.80;5.78;;;5.90;51.30;;;;;;5024294;28;20081;-78
2021/03/07 08:16:06;;;;;;;10.13;5.82;;;5.30;51.70;;;;;;5026783;28;20042;-77
2021/03/07 08:18:52;;;;;;;11.25;6.00;;;5.20;52.40;;;;;;5049857;28;20502;-76
2021/03/07 08:21:20;;;;;;;11.05;5.65;;;5.50;52.70;;;;;;5037802;28;20049;-77
2021/03/07 08:24:06;;;;;;;12.15;5.85;;;6.00;52.00;;;;;;5024490;28;20050;-76
2021/03/07 08:26:44;;;;;;;9.13;5.47;;;6.00;51.40;;;;;;5023702;28;20111;-77
2021/03/07 08:29:38;;;;;;;10.32;5.75;;;5.60;51.80;;;;;;5022450;28;20049;-76
2021/03/07 08:32:28;;;;;;;11.25;5.85;;;5.90;51.40;;;;;;5031803;28;20454;-76
2021/03/07 08:34:58;;;;;;;11.25;6.03;;;6.40;51.70;;;;;;5023265;28;20500;-77
2021/03/07 08:37:25;;;;;;;9.27;4.93;;;6.30;50.50;;;;;;5020690;28;20060;-79
2021/03/07 08:40:30;;;;;;;11.20;5.45;;;6.40;49.80;;;;;;5019514;28;20068;-81
2021/03/07 08:43:21;;;;;;;10.02;5.82;;;6.60;49.90;;;;;;5021975;28;20434;-76
2021/03/07 08:46:10;;;;;;;9.77;5.20;;;8.00;48.10;;;;;;5054810;28;20076;-74
2021/03/07 08:48:39;;;;;;;10.90;5.10;;;9.10;45.10;;;;;;5051513;28;20046;-78
2021/03/07 08:51:08;;;;;;;8.68;5.10;;;9.30;45.90;;;;;;5049734;28;20056;-78
2021/03/07 08:53:39;;;;;;;10.75;5.78;;;11.00;42.70;;;;;;5016999;28;20057;-79
2021/03/07 08:56:06;;;;;;;10.82;5.65;;;12.00;39.80;;;;;;5017914;28;20064;-78
2021/03/07 08:58:33;;;;;;;9.73;5.25;;;11.30;39.90;;;;;;5017388;28;20048;-78
2021/03/07 09:01:00;;;;;;;13.20;5.30;;;11.60;39.60;;;;;;5017697;28;20539;-77
2021/03/07 09:03:28;;;;;;;9.88;5.35;;;10.30;40.00;;;;;;5021173;28;20084;-76
2021/03/07 09:05:55;;;;;;;8.60;5.28;;;9.90;43.00;;;;;;5018128;28;21427;-73
2021/03/07 09:08:25;;;;;;;8.95;5.22;;;9.70;42.70;;;;;;5016542;28;20065;-71
2021/03/07 09:11:02;;;;;;;12.57;5.38;;;9.20;42.90;;;;;;5017030;28;20474;-72
2021/03/07 09:13:30;;;;;;;8.75;5.18;;;9.10;44.80;;;;;;5019334;28;20153;-73
2021/03/07 09:16:03;;;;;;;8.45;5.03;;;10.00;42.30;;;;;;5014453;28;20073;-72
2021/03/07 09:18:35;;;;;;;15.23;5.85;;;8.60;43.20;;;;;;5018746;28;20045;-72
2021/03/07 09:21:18;;;;;;;10.30;5.45;;;7.80;45.40;;;;;;5019410;28;20104;-71
2021/03/07 09:23:49;;;;;;;9.25;5.30;;;7.30;45.30;;;;;;5018021;28;20420;-72
2021/03/07 09:26:18;;;;;;;7.97;5.20;;;7.10;45.80;;;;;;5017235;28;20075;-72
2021/03/07 09:28:48;;;;;;;9.45;4.60;;;8.20;46.70;;;;;;5015667;28;20187;-72
2021/03/07 09:31:19;;;;;;;8.45;4.45;;;8.90;43.60;;;;;;5017587;28;20814;-71
2021/03/07 09:34:00;;;;;;;8.02;5.40;;;9.40;43.70;;;;;;5021903;28;20477;-70
2021/03/07 09:36:31;;;;;;;10.73;5.18;;;10.60;40.30;;;;;;5015407;28;20108;-71
2021/03/07 09:39:00;;;;;;;11.02;5.25;;;10.20;39.60;;;;;;5018847;28;20136;-70
2021/03/07 09:41:37;;;;;;;9.13;5.10;;;10.10;40.90;;;;;;5018524;28;20508;-72
2021/03/07 09:44:06;;;;;;;12.10;5.10;;;9.10;42.40;;;;;;5017626;28;20136;-72
2021/03/07 09:46:34;;;;;;;10.02;5.07;;;8.40;43.80;;;;;;5019146;28;20117;-72
2021/03/07 09:49:05;;;;;;;11.57;5.43;;;8.20;43.50;;;;;;5051158;28;20053;-71
2021/03/07 09:51:35;;;;;;;7.78;4.70;;;8.60;43.50;;;;;;5018127;28;20052;-72
2021/03/07 09:54:02;;;;;;;9.23;4.70;;;9.10;41.70;;;;;;5019689;28;20045;-73
2021/03/07 09:56:30;;;;;;;10.98;5.07;;;9.70;41.40;;;;;;5016826;28;20076;-75
2021/03/07 09:59:09;;;;;;;9.55;4.90;;;8.60;42.30;;;;;;5018289;28;20131;-72
2021/03/07 10:01:48;;;;;;;12.10;5.25;;;8.10;44.20;;;;;;5015519;28;20144;-71
2021/03/07 10:04:32;;;;;;;12.60;5.30;;;8.60;44.00;;;;;;5019297;28;20175;-72
2021/03/07 10:07:25;;;;;;;10.88;5.07;;;8.70;42.70;;;;;;5017065;28;20055;-72
2021/03/07 10:10:17;;;;;;;8.93;5.50;;;8.10;43.90;;;;;;5021480;28;20107;-74
2021/03/07 10:12:56;;;;;;;7.57;4.53;;;8.90;43.10;;;;;;5013618;28;20054;-69
2021/03/07 10:15:26;;;;;;;7.53;4.40;;;10.90;38.90;;;;;;5007992;28;20138;-69
2021/03/07 10:17:59;;;;;;;7.13;4.47;;;11.80;37.10;;;;;;5008733;28;20051;-71
2021/03/07 10:20:34;;;;;;;9.85;5.43;;;9.80;38.80;;;;;;5009540;28;20081;-70
2021/03/07 10:23:00;;;;;;;8.00;4.18;;;9.60;40.00;;;;;;5011244;28;20042;-68
2021/03/07 10:25:33;;;;;;;9.73;4.13;;;12.00;38.00;;;;;;5015748;28;20133;-70
2021/03/07 10:28:05;;;;;;;8.98;3.80;;;11.90;35.40;;;;;;5011582;28;20053;-71
2021/03/07 10:30:43;;;;;;;7.72;4.15;;;11.70;35.60;;;;;;5012782;28;20492;-69
2021/03/07 10:33:18;;;;;;;6.30;3.78;;;13.10;33.60;;;;;;5017790;28;20408;-70
2021/03/07 10:36:13;;;;;;;6.60;3.72;;;12.40;34.20;;;;;;5014587;28;20091;-70
2021/03/07 10:38:43;;;;;;;6.13;3.78;;;11.00;35.80;;;;;;5013824;28;20186;-70
2021/03/07 10:41:24;;;;;;;6.37;3.90;;;10.40;36.30;;;;;;5043308;28;20058;-70
2021/03/07 10:43:58;;;;;;;5.68;3.95;;;12.10;34.30;;;;;;5015805;28;20489;-69
2021/03/07 10:46:41;;;;;;;8.50;3.90;;;13.20;33.70;;;;;;5014885;28;20136;-71
2021/03/07 10:49:24;;;;;;;7.33;3.87;;;14.50;32.10;;;;;;5013000;28;20119;-70
2021/03/07 10:51:51;;;;;;;5.78;3.55;;;12.50;32.10;;;;;;5010028;28;20303;-70
2021/03/07 10:54:17;;;;;;;6.35;3.95;;;12.00;33.00;;;;;;5021088;28;20050;-69
2021/03/07 10:56:43;;;;;;;6.03;4.00;;;11.40;33.70;;;;;;5011133;28;20046;-70
2021/03/07 10:59:10;;;;;;;6.88;4.07;;;11.30;34.40;;;;;;5012252;28;20041;-70
2021/03/07 11:01:40;;;;;;;6.80;3.75;;;11.50;33.80;;;;;;5011348;28;20449;-71
2021/03/07 11:04:07;;;;;;;6.72;3.63;;;12.40;32.80;;;;;;5011255;28;20069;-71
2021/03/07 11:06:34;;;;;;;7.22;3.85;;;12.90;31.20;;;;;;5008506;28;20070;-70
2021/03/07 11:09:00;;;;;;;6.57;4.18;;;11.80;32.30;;;;;;5043109;28;20060;-69
2021/03/07 11:11:27;;;;;;;6.63;3.67;;;11.20;32.90;;;;;;5009985;28;20137;-69
2021/03/07 11:13:53;;;;;;;7.45;4.10;;;11.10;33.40;;;;;;5021112;28;20598;-70
2021/03/07 11:16:19;;;;;;;6.25;3.85;;;11.80;31.90;;;;;;5009911;28;20092;-70
2021/03/07 11:18:46;;;;;;;6.85;4.18;;;11.60;31.80;;;;;;5011602;28;20046;-71
2021/03/07 11:21:12;;;;;;;10.52;4.28;;;11.60;32.30;;;;;;5009148;28;20053;-69
2021/03/07 11:23:39;;;;;;;5.57;3.70;;;11.80;32.50;;;;;;5015745;28;20080;-71
2021/03/07 11:26:05;;;;;;;6.13;3.47;;;11.80;31.50;;;;;;5010614;28;20048;-70
2021/03/07 11:28:32;;;;;;;5.18;3.50;;;11.40;32.00;;;;;;5045459;28;20080;-70
2021/03/07 11:30:58;;;;;;;5.90;3.58;;;11.50;32.90;;;;;;5011437;28;20061;-70
2021/03/07 11:33:25;;;;;;;6.47;3.70;;;12.10;32.90;;;;;;5014074;28;20465;-71
2021/03/07 11:35:52;;;;;;;5.82;3.67;;;13.00;30.80;;;;;;5010586;28;20053;-70
2021/03/07 11:38:19;;;;;;;6.05;3.70;;;13.10;30.00;;;;;;5009538;28;20050;-70
2021/03/07 11:40:45;;;;;;;8.85;4.10;;;13.10;30.00;;;;;;5010983;28;20156;-71
2021/03/07 11:43:13;;;;;;;6.47;4.28;;;13.90;29.90;;;;;;5011645;28;20060;-70
2021/03/07 11:45:39;;;;;;;5.78;4.03;;;15.00;28.80;;;;;;5010894;28;20081;-69
2021/03/07 11:48:06;;;;;;;6.53;3.85;;;14.70;28.80;;;;;;5015701;28;20132;-71
2021/03/07 11:50:32;;;;;;;6.68;3.90;;;14.30;28.70;;;;;;5009217;28;20132;-70
2021/03/07 11:52:59;;;;;;;8.48;3.60;;;13.30;29.40;;;;;;5016467;28;20136;-69
2021/03/07 11:55:25;;;;;;;8.13;3.85;;;12.80;29.40;;;;;;5020855;28;20057;-70
2021/03/07 11:57:52;;;;;;;11.45;4.88;;;12.00;30.30;;;;;;5017621;28;20087;-71
2021/03/07 12:00:18;;;;;;;7.72;4.07;;;11.80;30.50;;;;;;5020958;28;20548;-70
2021/03/07 12:02:46;;;;;;;8.90;3.80;;;11.70;31.30;;;;;;5026004;28;20077;-71
2021/03/07 12:05:12;;;;;;;5.88;3.35;;;11.90;30.60;;;;;;5027783;28;20522;-72
2021/03/07 12:07:39;;;;;;;4.97;3.53;;;12.60;29.10;;;;;;5020495;28;20125;-70
2021/03/07 12:10:06;;;;;;;5.20;3.00;;;12.20;28.60;;;;;;5020265;28;20065;-71
2021/03/07 12:12:32;;;;;;;3.88;2.92;;;11.90;27.20;;;;;;5020997;28;20137;-71
2021/03/07 12:14:58;;;;;;;5.70;3.03;;;12.40;28.10;;;;;;5025669;28;20478;-71
2021/03/07 12:17:25;;;;;;;5.72;3.40;;;12.60;27.10;;;;;;5019646;28;20130;-70
2021/03/07 12:20:02;;;;;;;5.35;3.55;;;13.30;26.90;;;;;;5051924;28;20046;-70
2021/03/07 12:22:29;;;;;;;5.72;3.17;;;12.90;26.90;;;;;;5028225;28;20084;-69
2021/03/07 12:24:56;;;;;;;5.05;3.33;;;13.20;26.90;;;;;;5030521;28;20084;-69
2021/03/07 12:27:23;;;;;;;5.72;3.50;;;12.60;27.90;;;;;;5020932;28;20050;-70
2021/03/07 12:29:49;;;;;;;5.75;3.63;;;12.60;27.40;;;;;;5024616;28;20049;-71
2021/03/07 12:32:17;;;;;;;5.47;3.60;;;12.50;28.00;;;;;;5018715;28;20520;-69
2021/03/07 12:34:43;;;;;;;5.18;3.40;;;12.40;27.90;;;;;;5024298;28;20051;-70
2021/03/07 12:37:10;;;;;;;5.55;3.60;;;12.30;30.00;;;;;;5016416;28;20108;-71
2021/03/07 12:39:36;;;;;;;6.22;3.40;;;12.50;27.60;;;;;;5024188;28;20073;-69
2021/03/07 12:42:03;;;;;;;4.75;3.38;;;12.30;27.40;;;;;;5017817;28;20485;-69
2021/03/07 12:44:29;;;;;;;4.97;3.30;;;12.10;28.60;;;;;;5016144;28;20442;-70
2021/03/07 12:46:56;;;;;;;5.47;3.72;;;12.10;27.80;;;;;;5025021;28;20133;-69
2021/03/07 12:49:23;;;;;;;4.38;3.58;;;12.50;28.50;;;;;;5019144;28;21318;-70
2021/03/07 12:51:50;;;;;;;7.00;4.13;;;13.00;28.60;;;;;;5023762;28;20526;-69
2021/03/07 12:54:16;;;;;;;7.00;4.30;;;13.20;28.90;;;;;;5024289;28;20077;-70
2021/03/07 12:56:43;;;;;;;6.97;4.47;;;12.90;29.90;;;;;;5013162;28;20049;-71
2021/03/07 12:59:09;;;;;;;7.53;4.68;;;12.90;29.30;;;;;;5020303;28;20077;-70
2021/03/07 13:01:35;;;;;;;12.98;5.10;;;12.90;29.70;;;;;;5017450;28;20049;-70
2021/03/07 13:04:02;;;;;;;7.95;4.95;;;13.30;29.40;;;;;;5015724;28;20054;-70
2021/03/07 13:06:28;;;;;;;6.43;4.00;;;14.00;28.50;;;;;;5020752;28;20096;-71
2021/03/07 13:08:55;;;;;;;6.72;4.35;;;13.90;27.60;;;;;;5019204;28;20171;-70